createdAt,value
2023-02-18T00:00:23.483Z,12.00
2023-02-18T00:00:56.650Z,12.00
2023-02-18T00:01:30.279Z,12.00
2023-02-18T00:02:02.298Z,12.00
2023-02-18T00:02:34.466Z,12.00
2023-02-18T00:03:07.298Z,12.10
2023-02-18T00:03:39.373Z,12.00
2023-02-18T00:04:11.281Z,12.00
2023-02-18T00:04:44.044Z,12.00
2023-02-18T00:05:16.344Z,12.10
2023-02-18T00:05:48.114Z,12.10
2023-02-18T00:06:23.416Z,12.10
2023-02-18T00:06:55.297Z,12.10
2023-02-18T00:07:27.198Z,12.10
2023-02-18T00:07:59.931Z,12.10
2023-02-18T00:08:31.693Z,12.00
2023-02-18T00:09:04.929Z,12.00
2023-02-18T00:09:40.407Z,12.00
2023-02-18T00:10:14.666Z,12.10
2023-02-18T00:10:46.827Z,12.10
2023-02-18T00:11:21.358Z,12.10
2023-02-18T00:11:53.627Z,12.10
2023-02-18T00:12:26.452Z,12.10
2023-02-18T00:12:58.231Z,12.10
2023-02-18T00:13:30.110Z,12.00
2023-02-18T00:14:04.984Z,12.00
2023-02-18T00:14:36.796Z,12.00
2023-02-18T00:15:09.903Z,12.00
2023-02-18T00:15:42.005Z,12.00
2023-02-18T00:16:15.003Z,12.00
2023-02-18T00:16:49.461Z,12.00
2023-02-18T00:17:22.296Z,12.00
2023-02-18T00:17:54.151Z,12.00
2023-02-18T00:18:26.085Z,12.00
2023-02-18T00:19:00.405Z,12.00
2023-02-18T00:19:32.310Z,12.00
2023-02-18T00:20:05.138Z,12.00
2023-02-18T00:20:40.226Z,11.90
2023-02-18T00:21:12.138Z,11.90
2023-02-18T00:21:44.844Z,11.90
2023-02-18T00:22:17.909Z,11.90
2023-02-18T00:22:49.724Z,11.90
2023-02-18T00:23:21.631Z,11.90
2023-02-18T00:23:54.521Z,11.90
2023-02-18T00:24:26.406Z,11.90
2023-02-18T00:24:59.600Z,11.90
2023-02-18T00:25:32.374Z,12.10
2023-02-18T00:26:08.267Z,11.90
2023-02-18T00:26:40.247Z,12.00
2023-02-18T00:27:12.997Z,12.00
2023-02-18T00:27:44.811Z,12.00
2023-02-18T00:28:16.625Z,12.00
2023-02-18T00:28:51.336Z,12.00
2023-02-18T00:29:23.181Z,12.00
2023-02-18T00:29:56.040Z,12.00
2023-02-18T00:30:28.628Z,12.00
2023-02-18T00:31:05.549Z,12.00
2023-02-18T00:31:40.181Z,11.90
2023-02-18T00:32:12.098Z,11.90
2023-02-18T00:32:44.031Z,11.90
2023-02-18T00:33:16.936Z,11.90
2023-02-18T00:33:48.796Z,11.90
2023-02-18T00:34:20.673Z,11.90
2023-02-18T00:34:53.735Z,11.90
2023-02-18T00:35:25.698Z,11.90
2023-02-18T00:36:02.592Z,11.80
2023-02-18T00:36:36.365Z,11.90
2023-02-18T00:37:08.235Z,11.90
2023-02-18T00:37:40.089Z,11.90
2023-02-18T00:38:13.093Z,11.90
2023-02-18T00:38:46.019Z,11.90
2023-02-18T00:39:18.920Z,11.90
2023-02-18T00:39:50.720Z,11.80
2023-02-18T00:40:23.927Z,11.80
2023-02-18T00:40:56.709Z,11.80
2023-02-18T00:41:29.523Z,11.90
2023-02-18T00:42:02.347Z,11.80
2023-02-18T00:42:34.258Z,11.80
2023-02-18T00:43:06.220Z,11.80
2023-02-18T00:43:39.008Z,11.80
2023-02-18T00:44:12.026Z,11.80
2023-02-18T00:44:44.892Z,11.80
2023-02-18T00:45:16.823Z,11.80
2023-02-18T00:45:48.708Z,11.80
2023-02-18T00:46:22.335Z,11.80
2023-02-18T00:46:54.188Z,11.80
2023-02-18T00:47:26.042Z,11.80
2023-02-18T00:47:58.807Z,11.80
2023-02-18T00:48:30.637Z,11.80
2023-02-18T00:49:03.065Z,11.80
2023-02-18T00:49:36.134Z,11.80
2023-02-18T00:50:09.611Z,11.80
2023-02-18T00:50:41.541Z,11.80
2023-02-18T00:51:14.645Z,11.80
2023-02-18T00:51:46.577Z,11.80
2023-02-18T00:52:18.356Z,11.80
2023-02-18T00:52:51.415Z,11.80
2023-02-18T00:53:23.552Z,11.80
2023-02-18T00:53:55.496Z,11.80
2023-02-18T00:54:28.228Z,11.80
2023-02-18T00:55:00.053Z,11.80
2023-02-18T00:55:33.220Z,11.80
2023-02-18T00:56:07.553Z,11.80
2023-02-18T00:56:39.595Z,11.80
2023-02-18T00:57:11.387Z,11.80
2023-02-18T00:57:44.189Z,11.80
2023-02-18T00:58:16.488Z,11.70
2023-02-18T00:58:48.518Z,11.70
2023-02-18T00:59:21.713Z,11.70
2023-02-18T00:59:53.640Z,11.70
2023-02-18T01:00:25.501Z,11.70
2023-02-18T01:00:58.394Z,11.70
2023-02-18T01:01:30.334Z,11.70
2023-02-18T01:02:02.171Z,11.70
2023-02-18T01:02:35.231Z,11.70
2023-02-18T01:03:07.550Z,11.70
2023-02-18T01:03:41.190Z,11.70
2023-02-18T01:04:14.099Z,11.70
2023-02-18T01:04:45.997Z,11.70
2023-02-18T01:05:17.994Z,11.70
2023-02-18T01:05:51.805Z,11.70
2023-02-18T01:06:23.596Z,11.70
2023-02-18T01:06:56.453Z,11.70
2023-02-18T01:07:28.263Z,11.70
2023-02-18T01:08:00.170Z,11.70
2023-02-18T01:08:32.000Z,11.70
2023-02-18T01:09:05.547Z,11.70
2023-02-18T01:09:37.419Z,11.70
2023-02-18T01:10:09.721Z,11.70
2023-02-18T01:10:46.807Z,11.70
2023-02-18T01:11:18.679Z,11.70
2023-02-18T01:11:50.495Z,11.70
2023-02-18T01:12:23.315Z,11.70
2023-02-18T01:12:55.203Z,11.70
2023-02-18T01:13:28.432Z,11.70
2023-02-18T01:14:01.244Z,11.70
2023-02-18T01:14:33.151Z,11.80
2023-02-18T01:15:06.549Z,11.70
2023-02-18T01:15:39.424Z,11.70
2023-02-18T01:16:11.814Z,11.70
2023-02-18T01:16:43.732Z,11.60
2023-02-18T01:17:16.514Z,11.60
2023-02-18T01:17:48.476Z,11.60
2023-02-18T01:18:21.378Z,11.60
2023-02-18T01:18:54.176Z,11.60
2023-02-18T01:19:26.030Z,11.60
2023-02-18T01:19:57.839Z,11.60
2023-02-18T01:20:30.720Z,11.60
2023-02-18T01:21:02.650Z,11.60
2023-02-18T01:21:35.423Z,11.70
2023-02-18T01:22:07.292Z,11.60
2023-02-18T01:22:39.200Z,11.70
2023-02-18T01:23:13.253Z,11.70
2023-02-18T01:23:45.118Z,11.70
2023-02-18T01:24:17.029Z,11.70
2023-02-18T01:24:49.979Z,11.70
2023-02-18T01:25:21.805Z,11.60
2023-02-18T01:25:56.101Z,11.60
2023-02-18T01:26:29.011Z,11.60
2023-02-18T01:27:00.815Z,11.60
2023-02-18T01:27:32.625Z,11.60
2023-02-18T01:28:06.612Z,11.60
2023-02-18T01:28:39.081Z,11.60
2023-02-18T01:29:11.047Z,11.60
2023-02-18T01:29:42.902Z,11.60
2023-02-18T01:30:18.792Z,11.50
2023-02-18T01:30:51.974Z,11.50
2023-02-18T01:31:24.152Z,11.50
2023-02-18T01:31:57.194Z,11.60
2023-02-18T01:32:29.128Z,11.50
2023-02-18T01:33:01.051Z,11.70
2023-02-18T01:33:33.882Z,11.60
2023-02-18T01:34:05.700Z,11.60
2023-02-18T01:34:37.552Z,11.60
2023-02-18T01:35:13.532Z,11.60
2023-02-18T01:35:45.448Z,11.50
2023-02-18T01:36:18.179Z,11.50
2023-02-18T01:36:51.003Z,11.50
2023-02-18T01:37:22.936Z,11.50
2023-02-18T01:37:54.774Z,11.50
2023-02-18T01:38:27.743Z,11.50
2023-02-18T01:38:59.578Z,11.50
2023-02-18T01:39:32.336Z,11.50
2023-02-18T01:40:06.027Z,11.50
2023-02-18T01:40:45.939Z,11.50
2023-02-18T01:41:19.183Z,11.50
2023-02-18T01:41:52.042Z,11.50
2023-02-18T01:42:26.301Z,11.50
2023-02-18T01:42:58.296Z,11.40
2023-02-18T01:43:31.243Z,11.40
2023-02-18T01:44:25.317Z,11.40
2023-02-18T01:45:31.330Z,11.40
2023-02-18T01:46:15.057Z,11.40
2023-02-18T01:46:49.062Z,11.40
2023-02-18T01:47:21.352Z,11.40
2023-02-18T01:47:53.335Z,11.40
2023-02-18T01:48:29.326Z,11.40
2023-02-18T01:49:02.865Z,11.40
2023-02-18T01:49:37.144Z,11.40
2023-02-18T01:50:09.358Z,11.40
2023-02-18T01:50:45.452Z,11.40
2023-02-18T01:51:21.295Z,11.40
2023-02-18T01:51:57.540Z,11.40
2023-02-18T01:52:32.320Z,11.40
2023-02-18T01:53:05.588Z,11.40
2023-02-18T01:53:43.022Z,11.40
2023-02-18T01:54:18.308Z,11.40
2023-02-18T01:54:53.222Z,11.40
2023-02-18T01:55:25.216Z,11.40
2023-02-18T01:55:58.549Z,11.40
2023-02-18T01:56:36.802Z,11.40
2023-02-18T01:57:11.830Z,11.40
2023-02-18T01:57:43.651Z,11.40
2023-02-18T01:58:16.397Z,11.40
2023-02-18T01:58:50.502Z,11.40
2023-02-18T01:59:26.641Z,11.40
2023-02-18T02:00:03.518Z,11.40
2023-02-18T02:00:36.959Z,11.40
2023-02-18T02:01:09.956Z,11.40
2023-02-18T02:01:44.602Z,11.40
2023-02-18T02:02:24.818Z,11.40
2023-02-18T02:02:56.801Z,11.40
2023-02-18T02:03:28.724Z,11.40
2023-02-18T02:04:01.523Z,11.40
2023-02-18T02:04:33.976Z,11.40
2023-02-18T02:05:06.445Z,11.40
2023-02-18T02:05:39.243Z,11.40
2023-02-18T02:06:16.609Z,11.40
2023-02-18T02:06:49.499Z,11.40
2023-02-18T02:07:23.518Z,11.50
2023-02-18T02:07:55.578Z,11.50
2023-02-18T02:08:30.455Z,11.50
2023-02-18T02:09:05.371Z,11.50
2023-02-18T02:09:38.459Z,11.50
2023-02-18T02:10:13.179Z,11.50
2023-02-18T02:11:04.624Z,11.50
2023-02-18T02:12:06.932Z,11.50
2023-02-18T02:12:53.339Z,11.50
2023-02-18T02:13:35.971Z,11.50
2023-02-18T02:14:21.088Z,11.50
2023-02-18T02:15:26.186Z,11.50
2023-02-18T02:16:07.015Z,11.60
2023-02-18T02:16:44.825Z,11.50
2023-02-18T02:17:27.947Z,11.50
2023-02-18T02:18:18.040Z,11.50
2023-02-18T02:19:02.091Z,11.50
2023-02-18T02:20:02.998Z,11.50
2023-02-18T02:21:09.515Z,11.50
2023-02-18T02:22:15.887Z,11.50
2023-02-18T02:23:24.724Z,11.50
2023-02-18T02:24:24.907Z,11.50
2023-02-18T02:25:09.378Z,11.60
2023-02-18T02:26:12.101Z,11.50
2023-02-18T02:27:06.984Z,11.60
2023-02-18T02:28:30.199Z,11.60
2023-02-18T02:29:29.455Z,11.60
2023-02-18T02:30:35.467Z,11.60
2023-02-18T02:31:53.207Z,11.60
2023-02-18T02:32:47.782Z,11.60
2023-02-18T02:33:47.476Z,11.60
2023-02-18T02:34:40.344Z,11.60
2023-02-18T02:35:16.088Z,11.60
2023-02-18T02:35:57.288Z,11.60
2023-02-18T02:36:34.910Z,11.60
2023-02-18T02:37:14.480Z,11.70
2023-02-18T02:37:55.110Z,11.70
2023-02-18T02:38:34.581Z,11.70
2023-02-18T02:39:14.621Z,11.60
2023-02-18T02:39:58.844Z,11.60
2023-02-18T02:40:36.946Z,11.60
2023-02-18T02:41:19.290Z,11.60
2023-02-18T02:41:57.883Z,11.60
2023-02-18T02:42:39.928Z,11.70
2023-02-18T02:43:18.889Z,11.70
2023-02-18T02:43:59.568Z,11.70
2023-02-18T02:44:38.657Z,11.70
2023-02-18T02:45:14.817Z,11.70
2023-02-18T02:45:55.486Z,11.70
2023-02-18T02:46:31.963Z,11.70
2023-02-18T02:47:11.753Z,11.70
2023-02-18T02:47:50.419Z,11.70
2023-02-18T02:48:29.859Z,11.70
2023-02-18T02:49:11.645Z,11.70
2023-02-18T02:49:51.570Z,11.70
2023-02-18T02:50:30.520Z,11.70
2023-02-18T02:51:09.267Z,11.70
2023-02-18T02:51:49.770Z,11.70
2023-02-18T02:52:27.823Z,11.70
2023-02-18T02:53:03.576Z,11.70
2023-02-18T02:53:37.459Z,11.70
2023-02-18T02:54:13.298Z,11.70
2023-02-18T02:54:46.124Z,11.70
2023-02-18T02:55:18.009Z,11.70
2023-02-18T02:55:49.855Z,11.80
2023-02-18T02:56:25.125Z,11.80
2023-02-18T02:57:08.912Z,11.80
2023-02-18T02:57:49.414Z,11.80
2023-02-18T02:58:22.788Z,11.70
2023-02-18T02:59:00.157Z,11.70
2023-02-18T02:59:32.654Z,11.80
2023-02-18T03:00:10.883Z,11.80
2023-02-18T03:00:57.338Z,11.80
2023-02-18T03:01:42.697Z,11.80
2023-02-18T03:02:29.673Z,11.70
2023-02-18T03:03:38.551Z,11.70
2023-02-18T03:04:31.018Z,11.70
2023-02-18T03:05:19.609Z,11.70
2023-02-18T03:06:17.286Z,11.70
2023-02-18T03:07:16.178Z,11.70
2023-02-18T03:08:22.897Z,11.70
2023-02-18T03:09:06.088Z,11.70
2023-02-18T03:09:49.163Z,11.70
2023-02-18T03:10:44.344Z,11.70
2023-02-18T03:11:18.448Z,11.70
2023-02-18T03:11:58.585Z,11.70
2023-02-18T03:12:37.484Z,11.70
2023-02-18T03:13:18.441Z,11.70
2023-02-18T03:13:57.676Z,11.70
2023-02-18T03:14:36.580Z,11.70
2023-02-18T03:15:16.369Z,11.70
2023-02-18T03:15:53.495Z,11.70
2023-02-18T03:16:33.655Z,11.70
2023-02-18T03:17:13.721Z,11.70
2023-02-18T03:17:51.643Z,11.70
2023-02-18T03:18:33.905Z,11.90
2023-02-18T03:19:11.940Z,11.80
2023-02-18T03:19:49.785Z,11.80
2023-02-18T03:20:28.499Z,11.80
2023-02-18T03:21:07.174Z,11.70
2023-02-18T03:21:44.938Z,11.70
2023-02-18T03:22:22.191Z,11.70
2023-02-18T03:22:55.872Z,11.70
2023-02-18T03:23:33.566Z,11.70
2023-02-18T03:24:11.095Z,11.70
2023-02-18T03:24:45.837Z,11.70
2023-02-18T03:25:19.896Z,11.80
2023-02-18T03:25:52.015Z,11.70
2023-02-18T03:26:25.484Z,11.70
2023-02-18T03:27:04.111Z,11.70
2023-02-18T03:27:40.911Z,11.80
2023-02-18T03:28:15.675Z,11.80
2023-02-18T03:28:52.381Z,11.80
2023-02-18T03:29:25.898Z,11.80
2023-02-18T03:30:02.924Z,11.80
2023-02-18T03:30:42.789Z,11.80
2023-02-18T03:31:18.697Z,11.80
2023-02-18T03:31:55.855Z,11.80
2023-02-18T03:32:31.248Z,11.80
2023-02-18T03:33:06.044Z,11.80
2023-02-18T03:33:43.402Z,11.70
2023-02-18T03:34:18.825Z,11.70
2023-02-18T03:34:55.954Z,11.70
2023-02-18T03:35:30.534Z,11.80
2023-02-18T03:36:02.838Z,11.70
2023-02-18T03:36:35.752Z,11.70
2023-02-18T03:37:10.753Z,11.70
2023-02-18T03:37:47.591Z,11.70
2023-02-18T03:38:24.708Z,11.70
2023-02-18T03:39:01.251Z,11.80
2023-02-18T03:39:37.099Z,11.80
2023-02-18T03:40:11.467Z,11.80
2023-02-18T03:40:43.518Z,11.80
2023-02-18T03:41:16.041Z,11.80
2023-02-18T03:41:49.437Z,11.80
2023-02-18T03:42:25.849Z,11.80
2023-02-18T03:42:58.269Z,11.80
2023-02-18T03:43:31.409Z,11.90
2023-02-18T03:44:06.074Z,11.90
2023-02-18T03:44:37.908Z,11.90
2023-02-18T03:45:10.837Z,11.90
2023-02-18T03:45:42.655Z,11.90
2023-02-18T03:46:14.569Z,11.80
2023-02-18T03:46:47.466Z,11.80
2023-02-18T03:47:19.404Z,11.80
2023-02-18T03:47:51.405Z,11.80
2023-02-18T03:48:24.601Z,11.80
2023-02-18T03:48:56.808Z,11.80
2023-02-18T03:49:28.581Z,11.70
2023-02-18T03:50:01.629Z,11.70
2023-02-18T03:50:34.872Z,11.70
2023-02-18T03:51:06.668Z,11.70
2023-02-18T03:51:40.112Z,11.80
2023-02-18T03:52:12.063Z,11.80
2023-02-18T03:52:43.956Z,11.80
2023-02-18T03:53:16.764Z,11.80
2023-02-18T03:53:48.773Z,11.80
2023-02-18T03:54:21.067Z,11.80
2023-02-18T03:54:53.825Z,11.80
2023-02-18T03:55:25.655Z,11.80
2023-02-18T03:55:57.563Z,11.80
2023-02-18T03:56:30.420Z,11.80
2023-02-18T03:57:02.270Z,11.80
2023-02-18T03:57:34.055Z,11.80
2023-02-18T03:58:06.843Z,11.80
2023-02-18T03:58:38.671Z,11.80
2023-02-18T03:59:12.065Z,11.80
2023-02-18T03:59:45.011Z,11.80
2023-02-18T04:00:18.526Z,11.80
2023-02-18T04:00:50.388Z,11.80
2023-02-18T04:01:23.285Z,11.80
2023-02-18T04:01:55.183Z,11.80
2023-02-18T04:02:27.137Z,11.80
2023-02-18T04:02:58.943Z,11.80
2023-02-18T04:03:31.814Z,11.70
2023-02-18T04:04:03.952Z,11.70
2023-02-18T04:04:35.852Z,11.70
2023-02-18T04:05:09.668Z,11.70
2023-02-18T04:05:42.823Z,11.70
2023-02-18T04:06:14.664Z,11.70
2023-02-18T04:06:47.606Z,11.70
2023-02-18T04:07:19.454Z,11.70
2023-02-18T04:07:51.246Z,11.70
2023-02-18T04:08:23.146Z,11.70
2023-02-18T04:08:56.219Z,11.70
2023-02-18T04:09:28.066Z,11.70
2023-02-18T04:09:59.869Z,11.70
2023-02-18T04:10:32.679Z,11.70
2023-02-18T04:11:05.509Z,11.70
2023-02-18T04:11:39.021Z,11.70
2023-02-18T04:12:11.787Z,11.70
2023-02-18T04:12:43.643Z,11.70
2023-02-18T04:13:15.677Z,11.70
2023-02-18T04:13:48.450Z,11.70
2023-02-18T04:14:20.283Z,11.70
2023-02-18T04:14:52.098Z,11.70
2023-02-18T04:15:24.910Z,11.80
2023-02-18T04:15:56.768Z,11.70
2023-02-18T04:16:28.651Z,11.70
2023-02-18T04:17:01.536Z,11.70
2023-02-18T04:17:33.713Z,11.70
2023-02-18T04:18:05.741Z,11.70
2023-02-18T04:18:38.589Z,11.70
2023-02-18T04:19:10.563Z,11.70
2023-02-18T04:19:42.551Z,11.70
2023-02-18T04:20:16.472Z,11.80
2023-02-18T04:20:49.648Z,11.80
2023-02-18T04:21:21.459Z,11.80
2023-02-18T04:21:54.331Z,11.80
2023-02-18T04:22:26.197Z,11.80
2023-02-18T04:22:58.029Z,11.80
2023-02-18T04:23:30.842Z,11.80
2023-02-18T04:24:02.707Z,11.80
2023-02-18T04:24:34.606Z,11.70
2023-02-18T04:25:08.283Z,11.80
2023-02-18T04:25:40.220Z,11.70
2023-02-18T04:26:12.624Z,11.70
2023-02-18T04:26:45.472Z,11.80
2023-02-18T04:27:17.356Z,11.80
2023-02-18T04:27:49.600Z,11.80
2023-02-18T04:28:22.541Z,11.70
2023-02-18T04:28:54.338Z,11.80
2023-02-18T04:29:26.131Z,11.70
2023-02-18T04:29:58.931Z,11.70
2023-02-18T04:30:31.278Z,11.70
2023-02-18T04:31:03.505Z,11.70
2023-02-18T04:31:36.554Z,11.60
2023-02-18T04:32:08.547Z,11.60
2023-02-18T04:32:40.412Z,11.60
2023-02-18T04:33:12.269Z,11.60
2023-02-18T04:33:45.363Z,11.70
2023-02-18T04:34:17.209Z,11.70
2023-02-18T04:34:48.999Z,11.70
2023-02-18T04:35:20.977Z,11.70
2023-02-18T04:35:55.129Z,11.70
2023-02-18T04:36:27.430Z,11.70
2023-02-18T04:37:00.207Z,11.70
2023-02-18T04:37:32.062Z,11.70
2023-02-18T04:38:04.805Z,11.80
2023-02-18T04:38:36.620Z,11.70
2023-02-18T04:39:09.401Z,11.80
2023-02-18T04:39:41.274Z,11.80
2023-02-18T04:40:13.453Z,11.70
2023-02-18T04:40:46.253Z,11.70
2023-02-18T04:41:18.130Z,11.70
2023-02-18T04:41:49.950Z,11.70
2023-02-18T04:42:21.725Z,11.70
2023-02-18T04:42:54.526Z,11.70
2023-02-18T04:43:26.355Z,11.70
2023-02-18T04:43:59.514Z,11.70
2023-02-18T04:44:32.251Z,11.70
2023-02-18T04:45:04.659Z,11.70
2023-02-18T04:45:36.467Z,11.60
2023-02-18T04:46:09.657Z,11.60
2023-02-18T04:46:41.648Z,11.60
2023-02-18T04:47:13.579Z,11.60
2023-02-18T04:47:46.369Z,11.60
2023-02-18T04:48:18.240Z,11.60
2023-02-18T04:48:50.068Z,11.60
2023-02-18T04:49:22.826Z,11.60
2023-02-18T04:49:54.593Z,11.60
2023-02-18T04:50:26.452Z,11.60
2023-02-18T04:51:00.557Z,11.60
2023-02-18T04:51:32.537Z,11.60
2023-02-18T04:52:04.801Z,11.60
2023-02-18T04:52:37.592Z,11.60
2023-02-18T04:53:09.391Z,11.60
2023-02-18T04:53:41.251Z,11.70
2023-02-18T04:54:13.997Z,11.70
2023-02-18T04:54:45.847Z,11.70
2023-02-18T04:55:17.919Z,11.70
2023-02-18T04:55:51.624Z,11.70
2023-02-18T04:56:23.423Z,11.70
2023-02-18T04:56:55.338Z,11.70
2023-02-18T04:57:28.139Z,11.70
2023-02-18T04:57:59.971Z,11.70
2023-02-18T04:58:31.775Z,11.70
2023-02-18T04:59:04.563Z,11.70
2023-02-18T04:59:36.480Z,11.70
2023-02-18T05:00:13.841Z,11.70
2023-02-18T05:00:46.936Z,11.60
2023-02-18T05:01:18.798Z,11.70
2023-02-18T05:01:50.942Z,11.70
2023-02-18T05:02:23.773Z,11.70
2023-02-18T05:02:55.955Z,11.70
2023-02-18T05:03:28.060Z,11.70
2023-02-18T05:04:00.841Z,11.70
2023-02-18T05:04:32.870Z,11.70
2023-02-18T05:05:04.849Z,11.70
2023-02-18T05:05:37.320Z,11.70
2023-02-18T05:06:11.464Z,11.70
2023-02-18T05:06:43.339Z,11.70
2023-02-18T05:07:15.184Z,11.70
2023-02-18T05:07:48.017Z,11.70
2023-02-18T05:08:19.824Z,11.70
2023-02-18T05:08:51.662Z,11.70
2023-02-18T05:09:23.811Z,11.60
2023-02-18T05:09:56.628Z,11.60
2023-02-18T05:10:28.491Z,11.60
2023-02-18T05:11:00.359Z,11.60
2023-02-18T05:11:33.250Z,11.60
2023-02-18T05:12:05.971Z,11.60
2023-02-18T05:12:37.776Z,11.60
2023-02-18T05:13:09.576Z,11.60
2023-02-18T05:13:42.323Z,11.60
2023-02-18T05:14:14.241Z,11.60
2023-02-18T05:14:46.131Z,11.60
2023-02-18T05:15:19.050Z,11.50
2023-02-18T05:15:51.328Z,11.60
2023-02-18T05:16:23.443Z,11.60
2023-02-18T05:16:56.412Z,11.50
2023-02-18T05:17:28.206Z,11.50
2023-02-18T05:18:00.015Z,11.50
2023-02-18T05:18:31.848Z,11.60
2023-02-18T05:19:04.712Z,11.60
2023-02-18T05:19:36.492Z,11.60
2023-02-18T05:20:10.041Z,11.60
2023-02-18T05:20:42.872Z,11.60
2023-02-18T05:21:16.003Z,11.50
2023-02-18T05:21:47.807Z,11.50
2023-02-18T05:22:20.573Z,11.50
2023-02-18T05:22:52.372Z,11.50
2023-02-18T05:23:25.691Z,11.50
2023-02-18T05:23:58.696Z,11.50
2023-02-18T05:24:30.494Z,11.50
2023-02-18T05:25:02.389Z,11.50
2023-02-18T05:25:34.177Z,11.40
2023-02-18T05:26:07.293Z,11.40
2023-02-18T05:26:39.517Z,11.50
2023-02-18T05:27:11.324Z,11.50
2023-02-18T05:27:44.148Z,11.60
2023-02-18T05:28:17.238Z,11.50
2023-02-18T05:28:49.409Z,11.50
2023-02-18T05:29:22.224Z,11.50
2023-02-18T05:29:54.038Z,11.50
2023-02-18T05:30:25.882Z,11.50
2023-02-18T05:30:58.839Z,11.50
2023-02-18T05:31:30.775Z,11.50
2023-02-18T05:32:02.683Z,11.50
2023-02-18T05:32:35.659Z,11.50
2023-02-18T05:33:07.481Z,11.50
2023-02-18T05:33:39.312Z,11.60
2023-02-18T05:34:12.111Z,11.50
2023-02-18T05:34:43.938Z,11.50
2023-02-18T05:35:15.982Z,11.50
2023-02-18T05:35:49.658Z,11.50
2023-02-18T05:36:23.080Z,11.50
2023-02-18T05:36:54.864Z,11.50
2023-02-18T05:37:27.639Z,11.50
2023-02-18T05:37:59.404Z,11.50
2023-02-18T05:38:31.198Z,11.50
2023-02-18T05:39:04.245Z,11.50
2023-02-18T05:39:36.067Z,11.50
2023-02-18T05:40:08.678Z,11.60
2023-02-18T05:40:41.580Z,11.50
2023-02-18T05:41:14.357Z,11.50
2023-02-18T05:41:46.154Z,11.50
2023-02-18T05:42:17.971Z,11.50
2023-02-18T05:42:50.743Z,11.50
2023-02-18T05:43:23.070Z,11.50
2023-02-18T05:44:13.231Z,11.50
2023-02-18T05:44:46.157Z,11.50
2023-02-18T05:45:18.171Z,11.50
2023-02-18T05:45:49.967Z,11.50
2023-02-18T05:46:21.839Z,11.50
2023-02-18T05:46:54.649Z,11.50
2023-02-18T05:47:26.463Z,11.60
2023-02-18T05:47:58.298Z,11.50
2023-02-18T05:48:31.043Z,11.50
2023-02-18T05:49:02.859Z,11.50
2023-02-18T05:49:36.738Z,11.50
2023-02-18T05:50:09.178Z,11.50
2023-02-18T05:50:41.722Z,11.60
2023-02-18T05:51:14.675Z,11.50
2023-02-18T05:51:47.948Z,11.60
2023-02-18T05:52:21.940Z,11.60
2023-02-18T05:52:53.747Z,11.60
2023-02-18T05:53:25.539Z,11.60
2023-02-18T05:53:58.295Z,11.60
2023-02-18T05:54:30.514Z,11.60
2023-02-18T05:55:02.432Z,11.60
2023-02-18T05:55:38.868Z,11.70
2023-02-18T05:56:10.896Z,11.60
2023-02-18T05:56:42.788Z,11.60
2023-02-18T05:57:15.995Z,11.60
2023-02-18T05:57:47.987Z,11.60
2023-02-18T05:58:19.967Z,11.60
2023-02-18T05:58:51.783Z,11.60
2023-02-18T05:59:25.237Z,11.60
2023-02-18T05:59:58.260Z,11.60
2023-02-18T06:00:31.919Z,11.60
2023-02-18T06:01:05.145Z,11.60
2023-02-18T06:01:36.956Z,11.60
2023-02-18T06:02:08.748Z,11.60
2023-02-18T06:02:41.579Z,11.60
2023-02-18T06:03:13.577Z,11.60
2023-02-18T06:03:45.428Z,11.60
2023-02-18T06:04:18.436Z,11.60
2023-02-18T06:04:50.406Z,11.60
2023-02-18T06:05:22.255Z,11.60
2023-02-18T06:05:55.337Z,11.60
2023-02-18T06:06:27.147Z,11.60
2023-02-18T06:07:01.412Z,11.60
2023-02-18T06:07:33.195Z,11.60
2023-02-18T06:08:05.255Z,11.60
2023-02-18T06:08:38.199Z,11.60
2023-02-18T06:09:10.636Z,11.60
2023-02-18T06:09:42.422Z,11.60
2023-02-18T06:10:15.341Z,11.60
2023-02-18T06:10:47.307Z,11.60
2023-02-18T06:11:19.113Z,11.60
2023-02-18T06:11:52.096Z,11.60
2023-02-18T06:12:24.010Z,11.60
2023-02-18T06:12:55.773Z,11.60
2023-02-18T06:13:27.654Z,11.60
2023-02-18T06:14:00.674Z,11.60
2023-02-18T06:14:32.700Z,11.60
2023-02-18T06:15:05.495Z,11.60
2023-02-18T06:15:38.717Z,11.60
2023-02-18T06:16:10.914Z,11.70
2023-02-18T06:16:42.925Z,11.70
2023-02-18T06:17:18.612Z,11.70
2023-02-18T06:17:50.415Z,11.70
2023-02-18T06:18:22.337Z,11.70
2023-02-18T06:18:55.155Z,11.70
2023-02-18T06:19:26.998Z,11.70
2023-02-18T06:19:58.767Z,11.60
2023-02-18T06:20:31.711Z,11.60
2023-02-18T06:21:03.666Z,11.60
2023-02-18T06:21:35.584Z,11.60
2023-02-18T06:22:09.707Z,11.60
2023-02-18T06:22:41.525Z,11.60
2023-02-18T06:23:13.491Z,11.60
2023-02-18T06:23:45.355Z,11.60
2023-02-18T06:24:18.106Z,11.60
2023-02-18T06:24:49.886Z,11.60
2023-02-18T06:25:21.926Z,11.60
2023-02-18T06:25:54.740Z,11.60
2023-02-18T06:26:26.822Z,11.70
2023-02-18T06:26:58.727Z,11.60
2023-02-18T06:27:31.526Z,11.60
2023-02-18T06:28:03.567Z,11.60
2023-02-18T06:28:35.436Z,11.60
2023-02-18T06:29:08.239Z,11.60
2023-02-18T06:29:40.018Z,11.70
2023-02-18T06:30:12.297Z,11.60
2023-02-18T06:30:45.778Z,11.70
2023-02-18T06:31:17.642Z,11.70
2023-02-18T06:31:49.751Z,11.70
2023-02-18T06:32:22.639Z,11.70
2023-02-18T06:32:54.618Z,11.60
2023-02-18T06:33:26.467Z,11.60
2023-02-18T06:33:59.310Z,11.60
2023-02-18T06:34:31.151Z,11.80
2023-02-18T06:35:03.381Z,11.60
2023-02-18T06:35:36.211Z,11.60
2023-02-18T06:36:11.865Z,11.60
2023-02-18T06:36:43.901Z,11.60
2023-02-18T06:37:18.129Z,11.60
2023-02-18T06:37:50.064Z,11.60
2023-02-18T06:38:22.039Z,11.60
2023-02-18T06:38:57.261Z,11.60
2023-02-18T06:39:29.420Z,11.60
2023-02-18T06:40:01.244Z,11.60
2023-02-18T06:40:33.102Z,11.60
2023-02-18T06:41:06.908Z,11.60
2023-02-18T06:41:38.799Z,11.60
2023-02-18T06:42:10.642Z,11.60
2023-02-18T06:42:43.404Z,11.60
2023-02-18T06:43:15.260Z,11.60
2023-02-18T06:43:47.199Z,11.60
2023-02-18T06:44:20.066Z,11.60
2023-02-18T06:44:51.885Z,11.60
2023-02-18T06:45:23.770Z,11.60
2023-02-18T06:45:56.608Z,11.60
2023-02-18T06:46:28.476Z,11.60
2023-02-18T06:47:00.361Z,11.60
2023-02-18T06:47:33.180Z,11.60
2023-02-18T06:48:05.136Z,11.60
2023-02-18T06:48:38.065Z,11.70
2023-02-18T06:49:10.857Z,11.70
2023-02-18T06:49:42.775Z,11.70
2023-02-18T06:50:15.006Z,11.70
2023-02-18T06:50:47.860Z,11.70
2023-02-18T06:51:19.679Z,11.70
2023-02-18T06:51:51.596Z,11.60
2023-02-18T06:52:25.786Z,11.60
2023-02-18T06:52:57.743Z,11.60
2023-02-18T06:53:29.547Z,11.60
2023-02-18T06:54:02.289Z,11.70
2023-02-18T06:54:34.704Z,11.60
2023-02-18T06:55:07.910Z,11.60
2023-02-18T06:55:39.733Z,11.60
2023-02-18T06:56:12.712Z,11.60
2023-02-18T06:56:44.541Z,11.60
2023-02-18T06:57:16.399Z,11.60
2023-02-18T06:57:49.178Z,11.60
2023-02-18T06:58:21.009Z,11.60
2023-02-18T06:58:52.887Z,11.60
2023-02-18T06:59:25.687Z,11.60
2023-02-18T06:59:57.502Z,11.60
2023-02-18T07:00:29.434Z,11.60
2023-02-18T07:01:02.266Z,11.60
2023-02-18T07:01:34.143Z,11.60
2023-02-18T07:02:06.014Z,11.60
2023-02-18T07:02:38.835Z,11.60
2023-02-18T07:03:12.546Z,11.60
2023-02-18T07:03:44.341Z,11.60
2023-02-18T07:04:17.178Z,11.60
2023-02-18T07:04:49.015Z,11.60
2023-02-18T07:05:20.855Z,11.60
2023-02-18T07:05:53.669Z,11.60
2023-02-18T07:06:25.548Z,11.60
2023-02-18T07:06:57.423Z,11.60
2023-02-18T07:07:31.537Z,11.70
2023-02-18T07:08:03.459Z,11.70
2023-02-18T07:08:36.185Z,11.70
2023-02-18T07:09:09.370Z,11.70
2023-02-18T07:09:41.406Z,11.70
2023-02-18T07:10:13.208Z,11.70
2023-02-18T07:10:46.792Z,11.70
2023-02-18T07:11:18.674Z,11.70
2023-02-18T07:11:50.522Z,11.70
2023-02-18T07:12:23.329Z,11.70
2023-02-18T07:12:55.232Z,11.70
2023-02-18T07:13:27.143Z,11.70
2023-02-18T07:13:59.908Z,11.70
2023-02-18T07:14:31.703Z,11.70
2023-02-18T07:15:03.676Z,11.70
2023-02-18T07:15:35.555Z,11.70
2023-02-18T07:16:08.783Z,11.70
2023-02-18T07:16:40.886Z,11.80
2023-02-18T07:17:12.697Z,11.80
2023-02-18T07:17:45.470Z,11.70
2023-02-18T07:18:17.468Z,11.80
2023-02-18T07:18:49.277Z,11.70
2023-02-18T07:19:22.179Z,11.80
2023-02-18T07:19:55.644Z,11.70
2023-02-18T07:20:28.921Z,11.70
2023-02-18T07:21:00.694Z,11.70
2023-02-18T07:21:32.524Z,11.70
2023-02-18T07:22:05.611Z,11.70
2023-02-18T07:22:38.745Z,11.70
2023-02-18T07:23:11.236Z,11.70